Terminal Aerodrome Forecast
Issued by NWS

Home | Current Version | Previous Version | Text Only | Print | Product List | Glossary On
Versions: 1 2 3 4 5 6 7 8 9 10 11 12 13 14
000
FTUS42 KTBW 230900 AAA
TAFLAL
TAF AMD
KLAL 230907Z 2309/2406 12010KT P6SM SCT007 OVC015
      TEMPO 2309/2313 OVC007
     FM231500 15011G17KT P6SM SCT015 BKN030
     FM231800 18013G20KT P6SM SCT025 BKN070
     FM232300 18008KT P6SM SCT025 BKN070
     FM240300 17005KT P6SM SCT015 BKN070
      AMD NOT SKED TIL 231200=

USA.gov is the U.S. government's official web portal to all federal, state and local government web resources and services.